Terminal Aerodrome Forecast
Issued by NWS Cleveland, OH

Home | Current Version | Previous Version | Graphics & Text | Print | Product List | Glossary On
Versions: 1 2 3 4 5 6 7 8 9 10 11 12 13 14 15 16 17 18 19 20 21 22 23 24 25 26
000
FTUS41 KCLE 261500 AAA
TAFERI
TAF AMD
KERI 261500Z 2615/2712 36008KT 2SM -SNRA BR OVC005
     FM262000 30006KT 3SM -SN BR OVC010
     FM262300 26008KT P6SM OVC015
     FM270400 26008KT P6SM OVC050=

USA.gov is the U.S. government's official web portal to all federal, state and local government web resources and services.